sensor_id;sensor_type;location;lat;lon;timestamp;temperature;humidity
65203;HTU21D;51788;45.124;38.966;2024-01-25T00:01:36;-1.73;85.30
65203;HTU21D;51788;45.124;38.966;2024-01-25T00:04:02;-1.64;85.45
65203;HTU21D;51788;45.124;38.966;2024-01-25T00:06:28;-1.55;85.52
65203;HTU21D;51788;45.124;38.966;2024-01-25T00:08:54;-1.43;85.44
65203;HTU21D;51788;45.124;38.966;2024-01-25T00:11:20;-1.38;85.50
65203;HTU21D;51788;45.124;38.966;2024-01-25T00:13:45;-1.35;85.57
65203;HTU21D;51788;45.124;38.966;2024-01-25T00:16:11;-1.31;85.71
65203;HTU21D;51788;45.124;38.966;2024-01-25T00:18:38;-1.30;85.67
65203;HTU21D;51788;45.124;38.966;2024-01-25T00:21:04;-1.31;85.89
65203;HTU21D;51788;45.124;38.966;2024-01-25T00:23:30;-1.27;85.88
65203;HTU21D;51788;45.124;38.966;2024-01-25T00:25:56;-1.29;86.00
65203;HTU21D;51788;45.124;38.966;2024-01-25T00:28:26;-1.28;86.12
65203;HTU21D;51788;45.124;38.966;2024-01-25T00:30:52;-1.31;86.06
65203;HTU21D;51788;45.124;38.966;2024-01-25T00:33:18;-1.40;86.15
65203;HTU21D;51788;45.124;38.966;2024-01-25T00:35:44;-1.48;86.29
65203;HTU21D;51788;45.124;38.966;2024-01-25T00:38:10;-1.54;86.41
65203;HTU21D;51788;45.124;38.966;2024-01-25T00:40:37;-1.57;86.47
65203;HTU21D;51788;45.124;38.966;2024-01-25T00:43:03;-1.60;86.54
65203;HTU21D;51788;45.124;38.966;2024-01-25T00:45:29;-1.63;86.44
65203;HTU21D;51788;45.124;38.966;2024-01-25T00:47:55;-1.67;86.45
65203;HTU21D;51788;45.124;38.966;2024-01-25T00:50:21;-1.73;86.47
65203;HTU21D;51788;45.124;38.966;2024-01-25T00:52:50;-1.75;86.49
65203;HTU21D;51788;45.124;38.966;2024-01-25T00:55:16;-1.78;86.51
65203;HTU21D;51788;45.124;38.966;2024-01-25T00:57:43;-1.78;86.49
65203;HTU21D;51788;45.124;38.966;2024-01-25T01:00:11;-1.82;86.47
65203;HTU21D;51788;45.124;38.966;2024-01-25T01:02:43;-1.82;86.45
65203;HTU21D;51788;45.124;38.966;2024-01-25T01:05:11;-1.84;86.44
65203;HTU21D;51788;45.124;38.966;2024-01-25T01:07:38;-1.85;86.44
65203;HTU21D;51788;45.124;38.966;2024-01-25T01:10:07;-1.80;86.45
65203;HTU21D;51788;45.124;38.966;2024-01-25T01:12:35;-1.80;86.32
65203;HTU21D;51788;45.124;38.966;2024-01-25T01:15:01;-1.77;86.27
65203;HTU21D;51788;45.124;38.966;2024-01-25T01:17:27;-1.74;86.27
65203;HTU21D;51788;45.124;38.966;2024-01-25T01:19:53;-1.74;86.18
65203;HTU21D;51788;45.124;38.966;2024-01-25T01:22:19;-1.72;86.22
65203;HTU21D;51788;45.124;38.966;2024-01-25T01:24:45;-1.67;86.24
65203;HTU21D;51788;45.124;38.966;2024-01-25T01:27:11;-1.63;86.19
65203;HTU21D;51788;45.124;38.966;2024-01-25T01:29:37;-1.61;86.15
65203;HTU21D;51788;45.124;38.966;2024-01-25T01:32:03;-1.57;86.22
65203;HTU21D;51788;45.124;38.966;2024-01-25T01:34:29;-1.49;86.20
65203;HTU21D;51788;45.124;38.966;2024-01-25T01:36:55;-1.47;86.15
65203;HTU21D;51788;45.124;38.966;2024-01-25T01:39:21;-1.45;86.09
65203;HTU21D;51788;45.124;38.966;2024-01-25T01:41:48;-1.45;86.09
65203;HTU21D;51788;45.124;38.966;2024-01-25T01:44:17;-1.45;86.10
65203;HTU21D;51788;45.124;38.966;2024-01-25T01:46:43;-1.46;86.12
65203;HTU21D;51788;45.124;38.966;2024-01-25T01:49:14;-1.47;86.19
65203;HTU21D;51788;45.124;38.966;2024-01-25T01:51:40;-1.46;86.20
65203;HTU21D;51788;45.124;38.966;2024-01-25T01:54:07;-1.47;86.22
65203;HTU21D;51788;45.124;38.966;2024-01-25T01:56:34;-1.49;86.21
65203;HTU21D;51788;45.124;38.966;2024-01-25T01:59:01;-1.49;86.35
65203;HTU21D;51788;45.124;38.966;2024-01-25T02:01:28;-1.43;86.35
65203;HTU21D;51788;45.124;38.966;2024-01-25T02:03:54;-1.40;86.43
65203;HTU21D;51788;45.124;38.966;2024-01-25T02:06:23;-1.31;86.45
65203;HTU21D;51788;45.124;38.966;2024-01-25T02:08:49;-1.24;86.43
65203;HTU21D;51788;45.124;38.966;2024-01-25T02:11:19;-1.20;86.54
65203;HTU21D;51788;45.124;38.966;2024-01-25T02:13:46;-1.06;86.76
65203;HTU21D;51788;45.124;38.966;2024-01-25T02:16:13;-0.95;86.65
65203;HTU21D;51788;45.124;38.966;2024-01-25T02:18:41;-0.83;86.58
65203;HTU21D;51788;45.124;38.966;2024-01-25T02:21:08;-0.76;86.63
65203;HTU21D;51788;45.124;38.966;2024-01-25T02:23:34;-0.70;86.64
65203;HTU21D;51788;45.124;38.966;2024-01-25T02:26:00;-0.66;86.68
65203;HTU21D;51788;45.124;38.966;2024-01-25T02:28:26;-0.59;86.78
65203;HTU21D;51788;45.124;38.966;2024-01-25T02:30:52;-0.56;86.80
65203;HTU21D;51788;45.124;38.966;2024-01-25T02:33:18;-0.55;86.89
65203;HTU21D;51788;45.124;38.966;2024-01-25T02:35:44;-0.53;86.91
65203;HTU21D;51788;45.124;38.966;2024-01-25T02:38:10;-0.47;86.97
65203;HTU21D;51788;45.124;38.966;2024-01-25T02:40:36;-0.38;86.96
65203;HTU21D;51788;45.124;38.966;2024-01-25T02:43:02;-0.30;86.95
65203;HTU21D;51788;45.124;38.966;2024-01-25T02:45:28;-0.25;86.90
65203;HTU21D;51788;45.124;38.966;2024-01-25T02:47:53;-0.21;86.93
65203;HTU21D;51788;45.124;38.966;2024-01-25T02:50:20;-0.19;86.96
65203;HTU21D;51788;45.124;38.966;2024-01-25T02:52:46;-0.14;86.97
65203;HTU21D;51788;45.124;38.966;2024-01-25T02:55:12;-0.11;86.96
65203;HTU21D;51788;45.124;38.966;2024-01-25T02:57:38;-0.02;87.00
65203;HTU21D;51788;45.124;38.966;2024-01-25T03:00:04;0.04;86.93
65203;HTU21D;51788;45.124;38.966;2024-01-25T03:02:30;0.13;86.89
65203;HTU21D;51788;45.124;38.966;2024-01-25T03:04:57;0.18;86.86
65203;HTU21D;51788;45.124;38.966;2024-01-25T03:07:23;0.21;86.85
65203;HTU21D;51788;45.124;38.966;2024-01-25T03:09:49;0.24;86.86
65203;HTU21D;51788;45.124;38.966;2024-01-25T03:12:15;0.24;86.84
65203;HTU21D;51788;45.124;38.966;2024-01-25T03:14:41;0.24;86.88
65203;HTU21D;51788;45.124;38.966;2024-01-25T03:17:07;0.24;86.91
65203;HTU21D;51788;45.124;38.966;2024-01-25T03:19:33;0.27;86.94
65203;HTU21D;51788;45.124;38.966;2024-01-25T03:21:58;0.31;86.97
65203;HTU21D;51788;45.124;38.966;2024-01-25T03:24:27;0.32;86.88
65203;HTU21D;51788;45.124;38.966;2024-01-25T03:26:53;0.34;86.91
65203;HTU21D;51788;45.124;38.966;2024-01-25T03:29:19;0.36;86.88
65203;HTU21D;51788;45.124;38.966;2024-01-25T03:31:45;0.39;86.89
65203;HTU21D;51788;45.124;38.966;2024-01-25T03:34:11;0.40;86.86
65203;HTU21D;51788;45.124;38.966;2024-01-25T03:36:38;0.43;86.85
65203;HTU21D;51788;45.124;38.966;2024-01-25T03:39:05;0.45;86.88
65203;HTU21D;51788;45.124;38.966;2024-01-25T03:41:33;0.48;86.89
65203;HTU21D;51788;45.124;38.966;2024-01-25T03:43:59;0.52;86.85
65203;HTU21D;51788;45.124;38.966;2024-01-25T03:46:24;0.54;86.81
65203;HTU21D;51788;45.124;38.966;2024-01-25T03:48:50;0.58;86.79
65203;HTU21D;51788;45.124;38.966;2024-01-25T03:51:16;0.61;86.82
65203;HTU21D;51788;45.124;38.966;2024-01-25T03:53:42;0.63;86.80
65203;HTU21D;51788;45.124;38.966;2024-01-25T03:56:12;0.64;86.79
65203;HTU21D;51788;45.124;38.966;2024-01-25T03:58:44;0.64;86.83
65203;HTU21D;51788;45.124;38.966;2024-01-25T04:01:10;0.63;86.84
65203;HTU21D;51788;45.124;38.966;2024-01-25T04:03:36;0.62;86.88
65203;HTU21D;51788;45.124;38.966;2024-01-25T04:06:02;0.61;86.94
65203;HTU21D;51788;45.124;38.966;2024-01-25T04:08:28;0.61;86.95
65203;HTU21D;51788;45.124;38.966;2024-01-25T04:10:54;0.61;86.98
65203;HTU21D;51788;45.124;38.966;2024-01-25T04:13:19;0.62;87.02
65203;HTU21D;51788;45.124;38.966;2024-01-25T04:15:45;0.65;87.03
65203;HTU21D;51788;45.124;38.966;2024-01-25T04:18:11;0.69;86.99
65203;HTU21D;51788;45.124;38.966;2024-01-25T04:20:37;0.72;86.94
65203;HTU21D;51788;45.124;38.966;2024-01-25T04:23:03;0.77;87.00
65203;HTU21D;51788;45.124;38.966;2024-01-25T04:25:29;0.89;87.08
65203;HTU21D;51788;45.124;38.966;2024-01-25T04:27:55;0.99;86.95
65203;HTU21D;51788;45.124;38.966;2024-01-25T04:30:22;1.05;86.89
65203;HTU21D;51788;45.124;38.966;2024-01-25T04:32:48;1.06;86.96
65203;HTU21D;51788;45.124;38.966;2024-01-25T04:35:13;1.08;87.03
65203;HTU21D;51788;45.124;38.966;2024-01-25T04:37:39;1.10;87.07
65203;HTU21D;51788;45.124;38.966;2024-01-25T04:40:06;1.12;87.13
65203;HTU21D;51788;45.124;38.966;2024-01-25T04:42:32;1.13;87.16
65203;HTU21D;51788;45.124;38.966;2024-01-25T04:44:58;1.16;87.19
65203;HTU21D;51788;45.124;38.966;2024-01-25T04:47:24;1.16;87.17
65203;HTU21D;51788;45.124;38.966;2024-01-25T04:49:50;1.13;87.22
65203;HTU21D;51788;45.124;38.966;2024-01-25T04:52:16;1.18;87.32
65203;HTU21D;51788;45.124;38.966;2024-01-25T04:54:42;1.23;87.29
65203;HTU21D;51788;45.124;38.966;2024-01-25T04:57:08;1.26;87.28
65203;HTU21D;51788;45.124;38.966;2024-01-25T04:59:36;1.29;87.34
65203;HTU21D;51788;45.124;38.966;2024-01-25T05:02:02;1.31;87.30
65203;HTU21D;51788;45.124;38.966;2024-01-25T05:04:28;1.29;87.30
65203;HTU21D;51788;45.124;38.966;2024-01-25T05:06:57;1.27;87.38
65203;HTU21D;51788;45.124;38.966;2024-01-25T05:09:23;1.25;87.43
65203;HTU21D;51788;45.124;38.966;2024-01-25T05:11:49;1.26;87.50
65203;HTU21D;51788;45.124;38.966;2024-01-25T05:14:15;1.26;87.50
65203;HTU21D;51788;45.124;38.966;2024-01-25T05:16:41;1.26;87.48
65203;HTU21D;51788;45.124;38.966;2024-01-25T05:19:07;1.26;87.50
65203;HTU21D;51788;45.124;38.966;2024-01-25T05:21:33;1.28;87.51
65203;HTU21D;51788;45.124;38.966;2024-01-25T05:23:59;1.27;87.51
65203;HTU21D;51788;45.124;38.966;2024-01-25T05:26:25;1.28;87.48
65203;HTU21D;51788;45.124;38.966;2024-01-25T05:28:51;1.26;87.47
65203;HTU21D;51788;45.124;38.966;2024-01-25T05:31:17;1.28;87.48
65203;HTU21D;51788;45.124;38.966;2024-01-25T05:33:43;1.27;87.48
65203;HTU21D;51788;45.124;38.966;2024-01-25T05:36:09;1.28;87.46
65203;HTU21D;51788;45.124;38.966;2024-01-25T05:38:35;1.26;87.42
65203;HTU21D;51788;45.124;38.966;2024-01-25T05:41:01;1.22;87.42
65203;HTU21D;51788;45.124;38.966;2024-01-25T05:43:27;1.17;87.52
65203;HTU21D;51788;45.124;38.966;2024-01-25T05:45:53;1.12;87.57
65203;HTU21D;51788;45.124;38.966;2024-01-25T05:48:19;1.12;87.55
65203;HTU21D;51788;45.124;38.966;2024-01-25T05:50:45;1.10;87.51
65203;HTU21D;51788;45.124;38.966;2024-01-25T05:53:11;1.09;87.49
65203;HTU21D;51788;45.124;38.966;2024-01-25T05:55:37;1.08;87.44
65203;HTU21D;51788;45.124;38.966;2024-01-25T05:58:03;1.08;87.39
65203;HTU21D;51788;45.124;38.966;2024-01-25T06:00:29;1.07;87.40
65203;HTU21D;51788;45.124;38.966;2024-01-25T06:02:55;1.11;87.38
65203;HTU21D;51788;45.124;38.966;2024-01-25T06:05:21;1.13;87.32
65203;HTU21D;51788;45.124;38.966;2024-01-25T06:07:47;1.17;87.28
65203;HTU21D;51788;45.124;38.966;2024-01-25T06:10:14;1.20;87.28
65203;HTU21D;51788;45.124;38.966;2024-01-25T06:12:40;1.23;87.27
65203;HTU21D;51788;45.124;38.966;2024-01-25T06:15:06;1.28;87.25
65203;HTU21D;51788;45.124;38.966;2024-01-25T06:17:32;1.36;87.25
65203;HTU21D;51788;45.124;38.966;2024-01-25T06:19:59;1.41;87.25
65203;HTU21D;51788;45.124;38.966;2024-01-25T06:22:24;1.50;87.24
65203;HTU21D;51788;45.124;38.966;2024-01-25T06:24:50;1.54;87.22
65203;HTU21D;51788;45.124;38.966;2024-01-25T06:27:16;1.60;87.22
65203;HTU21D;51788;45.124;38.966;2024-01-25T06:29:42;1.63;87.28
65203;HTU21D;51788;45.124;38.966;2024-01-25T06:32:09;1.66;87.35
65203;HTU21D;51788;45.124;38.966;2024-01-25T06:34:35;1.70;87.39
65203;HTU21D;51788;45.124;38.966;2024-01-25T06:37:01;1.76;87.47
65203;HTU21D;51788;45.124;38.966;2024-01-25T06:39:27;1.80;87.50
65203;HTU21D;51788;45.124;38.966;2024-01-25T06:41:54;1.84;87.45
65203;HTU21D;51788;45.124;38.966;2024-01-25T06:44:20;1.84;87.51
65203;HTU21D;51788;45.124;38.966;2024-01-25T06:46:46;1.85;87.65
65203;HTU21D;51788;45.124;38.966;2024-01-25T06:49:12;1.83;87.67
65203;HTU21D;51788;45.124;38.966;2024-01-25T06:51:37;1.85;87.77
65203;HTU21D;51788;45.124;38.966;2024-01-25T06:54:03;1.87;87.80
65203;HTU21D;51788;45.124;38.966;2024-01-25T06:56:29;1.97;87.83
65203;HTU21D;51788;45.124;38.966;2024-01-25T06:58:55;2.05;87.66
65203;HTU21D;51788;45.124;38.966;2024-01-25T07:01:22;2.10;87.58
65203;HTU21D;51788;45.124;38.966;2024-01-25T07:03:48;2.17;87.64
65203;HTU21D;51788;45.124;38.966;2024-01-25T07:06:17;2.26;87.53
65203;HTU21D;51788;45.124;38.966;2024-01-25T07:08:44;2.34;87.51
65203;HTU21D;51788;45.124;38.966;2024-01-25T07:11:10;2.45;87.46
65203;HTU21D;51788;45.124;38.966;2024-01-25T07:13:36;2.49;87.44
65203;HTU21D;51788;45.124;38.966;2024-01-25T07:16:02;2.55;87.48
65203;HTU21D;51788;45.124;38.966;2024-01-25T07:18:28;2.61;87.53
65203;HTU21D;51788;45.124;38.966;2024-01-25T07:20:54;2.71;87.51
65203;HTU21D;51788;45.124;38.966;2024-01-25T07:23:21;2.84;87.46
65203;HTU21D;51788;45.124;38.966;2024-01-25T07:25:47;3.01;87.28
65203;HTU21D;51788;45.124;38.966;2024-01-25T07:28:13;3.12;87.06
65203;HTU21D;51788;45.124;38.966;2024-01-25T07:30:39;3.16;87.13
65203;HTU21D;51788;45.124;38.966;2024-01-25T07:33:05;3.20;87.21
65203;HTU21D;51788;45.124;38.966;2024-01-25T07:35:32;3.21;87.41
65203;HTU21D;51788;45.124;38.966;2024-01-25T07:37:58;3.21;87.65
65203;HTU21D;51788;45.124;38.966;2024-01-25T07:40:24;3.15;87.87
65203;HTU21D;51788;45.124;38.966;2024-01-25T07:42:50;3.12;88.20
65203;HTU21D;51788;45.124;38.966;2024-01-25T07:45:16;3.09;88.44
65203;HTU21D;51788;45.124;38.966;2024-01-25T07:47:42;3.04;88.69
65203;HTU21D;51788;45.124;38.966;2024-01-25T07:50:10;2.96;89.09
65203;HTU21D;51788;45.124;38.966;2024-01-25T07:52:35;2.90;89.52
65203;HTU21D;51788;45.124;38.966;2024-01-25T07:55:01;2.93;89.68
65203;HTU21D;51788;45.124;38.966;2024-01-25T07:57:27;2.96;89.73
65203;HTU21D;51788;45.124;38.966;2024-01-25T07:59:54;3.01;89.67
65203;HTU21D;51788;45.124;38.966;2024-01-25T08:02:20;3.02;89.60
65203;HTU21D;51788;45.124;38.966;2024-01-25T08:04:46;3.03;89.59
65203;HTU21D;51788;45.124;38.966;2024-01-25T08:07:12;3.04;89.64
65203;HTU21D;51788;45.124;38.966;2024-01-25T08:09:38;3.06;89.60
65203;HTU21D;51788;45.124;38.966;2024-01-25T08:12:04;3.11;89.58
65203;HTU21D;51788;45.124;38.966;2024-01-25T08:14:30;3.20;89.51
65203;HTU21D;51788;45.124;38.966;2024-01-25T08:16:57;3.29;89.29
65203;HTU21D;51788;45.124;38.966;2024-01-25T08:19:23;3.44;89.05
65203;HTU21D;51788;45.124;38.966;2024-01-25T08:21:49;3.56;88.97
65203;HTU21D;51788;45.124;38.966;2024-01-25T08:24:15;3.73;88.79
65203;HTU21D;51788;45.124;38.966;2024-01-25T08:26:41;3.93;88.42
65203;HTU21D;51788;45.124;38.966;2024-01-25T08:29:07;4.05;88.11
65203;HTU21D;51788;45.124;38.966;2024-01-25T08:31:33;4.21;87.89
65203;HTU21D;51788;45.124;38.966;2024-01-25T08:33:59;4.36;87.54
65203;HTU21D;51788;45.124;38.966;2024-01-25T08:36:25;4.52;87.24
65203;HTU21D;51788;45.124;38.966;2024-01-25T08:38:51;4.66;86.90
65203;HTU21D;51788;45.124;38.966;2024-01-25T08:41:17;4.79;86.64
65203;HTU21D;51788;45.124;38.966;2024-01-25T08:43:43;4.83;86.46
65203;HTU21D;51788;45.124;38.966;2024-01-25T08:46:09;4.81;86.22
65203;HTU21D;51788;45.124;38.966;2024-01-25T08:48:35;4.78;86.35
65203;HTU21D;51788;45.124;38.966;2024-01-25T08:51:01;4.75;86.47
65203;HTU21D;51788;45.124;38.966;2024-01-25T08:53:27;4.74;86.45
65203;HTU21D;51788;45.124;38.966;2024-01-25T08:55:54;4.74;86.49
65203;HTU21D;51788;45.124;38.966;2024-01-25T08:58:21;4.79;86.47
65203;HTU21D;51788;45.124;38.966;2024-01-25T09:00:47;4.83;86.36
65203;HTU21D;51788;45.124;38.966;2024-01-25T09:03:15;4.90;86.14
65203;HTU21D;51788;45.124;38.966;2024-01-25T09:05:40;4.98;85.64
65203;HTU21D;51788;45.124;38.966;2024-01-25T09:08:15;5.03;85.32
65203;HTU21D;51788;45.124;38.966;2024-01-25T09:10:41;5.05;85.22
65203;HTU21D;51788;45.124;38.966;2024-01-25T09:13:08;5.11;85.22
65203;HTU21D;51788;45.124;38.966;2024-01-25T09:15:34;5.12;85.32
65203;HTU21D;51788;45.124;38.966;2024-01-25T09:18:00;5.18;85.28
65203;HTU21D;51788;45.124;38.966;2024-01-25T09:20:26;5.17;85.06
65203;HTU21D;51788;45.124;38.966;2024-01-25T09:22:52;5.18;85.07
65203;HTU21D;51788;45.124;38.966;2024-01-25T09:25:22;5.13;84.76
65203;HTU21D;51788;45.124;38.966;2024-01-25T09:27:47;5.06;85.03
65203;HTU21D;51788;45.124;38.966;2024-01-25T09:30:14;5.02;85.07
65203;HTU21D;51788;45.124;38.966;2024-01-25T09:32:40;4.97;85.15
65203;HTU21D;51788;45.124;38.966;2024-01-25T09:35:06;4.97;85.19
65203;HTU21D;51788;45.124;38.966;2024-01-25T09:37:33;5.03;85.09
65203;HTU21D;51788;45.124;38.966;2024-01-25T09:39:59;5.07;85.14
65203;HTU21D;51788;45.124;38.966;2024-01-25T09:42:26;5.13;85.03
65203;HTU21D;51788;45.124;38.966;2024-01-25T09:44:55;5.19;84.82
65203;HTU21D;51788;45.124;38.966;2024-01-25T09:47:21;5.20;84.76
65203;HTU21D;51788;45.124;38.966;2024-01-25T09:49:47;5.16;84.97
65203;HTU21D;51788;45.124;38.966;2024-01-25T09:52:14;5.15;84.98
65203;HTU21D;51788;45.124;38.966;2024-01-25T09:54:41;5.07;85.09
65203;HTU21D;51788;45.124;38.966;2024-01-25T09:57:15;5.02;85.35
65203;HTU21D;51788;45.124;38.966;2024-01-25T09:59:43;4.95;85.55
65203;HTU21D;51788;45.124;38.966;2024-01-25T10:02:10;4.94;85.68
65203;HTU21D;51788;45.124;38.966;2024-01-25T10:04:37;4.94;85.64
65203;HTU21D;51788;45.124;38.966;2024-01-25T10:07:03;4.95;85.80
65203;HTU21D;51788;45.124;38.966;2024-01-25T10:09:38;4.96;85.56
65203;HTU21D;51788;45.124;38.966;2024-01-25T10:12:04;4.96;85.59
65203;HTU21D;51788;45.124;38.966;2024-01-25T10:14:31;4.96;85.52
65203;HTU21D;51788;45.124;38.966;2024-01-25T10:16:57;4.96;85.70
65203;HTU21D;51788;45.124;38.966;2024-01-25T10:19:25;4.96;85.74
65203;HTU21D;51788;45.124;38.966;2024-01-25T10:21:51;4.96;85.78
65203;HTU21D;51788;45.124;38.966;2024-01-25T10:24:17;4.96;85.67
65203;HTU21D;51788;45.124;38.966;2024-01-25T10:26:43;4.96;85.81
65203;HTU21D;51788;45.124;38.966;2024-01-25T10:29:09;5.00;85.90
65203;HTU21D;51788;45.124;38.966;2024-01-25T10:31:39;5.00;85.87
65203;HTU21D;51788;45.124;38.966;2024-01-25T10:34:13;4.97;85.89
65203;HTU21D;51788;45.124;38.966;2024-01-25T10:36:41;4.93;85.98
65203;HTU21D;51788;45.124;38.966;2024-01-25T10:39:08;4.94;86.06
65203;HTU21D;51788;45.124;38.966;2024-01-25T10:41:35;4.95;85.97
65203;HTU21D;51788;45.124;38.966;2024-01-25T10:44:01;4.94;85.89
65203;HTU21D;51788;45.124;38.966;2024-01-25T10:46:29;4.96;85.93
65203;HTU21D;51788;45.124;38.966;2024-01-25T10:48:58;4.96;85.99
65203;HTU21D;51788;45.124;38.966;2024-01-25T10:51:26;4.92;86.06
65203;HTU21D;51788;45.124;38.966;2024-01-25T10:53:52;4.90;86.23
65203;HTU21D;51788;45.124;38.966;2024-01-25T10:56:18;4.91;86.29
65203;HTU21D;51788;45.124;38.966;2024-01-25T10:58:45;4.97;86.14
65203;HTU21D;51788;45.124;38.966;2024-01-25T11:01:11;5.04;86.03
65203;HTU21D;51788;45.124;38.966;2024-01-25T11:03:39;5.07;85.78
65203;HTU21D;51788;45.124;38.966;2024-01-25T11:06:06;5.08;85.67
65203;HTU21D;51788;45.124;38.966;2024-01-25T11:08:34;5.06;85.79
65203;HTU21D;51788;45.124;38.966;2024-01-25T11:11:05;5.07;85.72
65203;HTU21D;51788;45.124;38.966;2024-01-25T11:13:31;5.07;85.77
65203;HTU21D;51788;45.124;38.966;2024-01-25T11:15:58;5.06;85.77
65203;HTU21D;51788;45.124;38.966;2024-01-25T11:18:27;5.05;85.75
65203;HTU21D;51788;45.124;38.966;2024-01-25T11:20:52;5.00;85.96
65203;HTU21D;51788;45.124;38.966;2024-01-25T11:23:18;4.98;86.00
65203;HTU21D;51788;45.124;38.966;2024-01-25T11:25:47;4.93;86.23
65203;HTU21D;51788;45.124;38.966;2024-01-25T11:28:14;4.90;86.33
65203;HTU21D;51788;45.124;38.966;2024-01-25T11:30:44;4.89;86.50
65203;HTU21D;51788;45.124;38.966;2024-01-25T11:33:11;4.91;86.42
65203;HTU21D;51788;45.124;38.966;2024-01-25T11:35:37;4.91;86.48
65203;HTU21D;51788;45.124;38.966;2024-01-25T11:38:03;4.95;86.50
65203;HTU21D;51788;45.124;38.966;2024-01-25T11:40:29;4.97;86.41
65203;HTU21D;51788;45.124;38.966;2024-01-25T11:42:57;4.97;86.35
65203;HTU21D;51788;45.124;38.966;2024-01-25T11:45:23;4.97;86.26
65203;HTU21D;51788;45.124;38.966;2024-01-25T11:47:49;4.92;86.34
65203;HTU21D;51788;45.124;38.966;2024-01-25T11:50:16;4.92;86.48
65203;HTU21D;51788;45.124;38.966;2024-01-25T11:52:42;4.90;86.51
65203;HTU21D;51788;45.124;38.966;2024-01-25T11:55:09;4.92;86.32
65203;HTU21D;51788;45.124;38.966;2024-01-25T11:57:40;4.91;86.35
65203;HTU21D;51788;45.124;38.966;2024-01-25T12:00:12;4.92;86.25
65203;HTU21D;51788;45.124;38.966;2024-01-25T12:02:39;4.95;86.04
65203;HTU21D;51788;45.124;38.966;2024-01-25T12:05:06;4.94;85.96
65203;HTU21D;51788;45.124;38.966;2024-01-25T12:07:38;4.95;85.89
65203;HTU21D;51788;45.124;38.966;2024-01-25T12:10:08;4.94;85.84
65203;HTU21D;51788;45.124;38.966;2024-01-25T12:12:36;4.97;85.76
65203;HTU21D;51788;45.124;38.966;2024-01-25T12:15:06;4.95;85.71
65203;HTU21D;51788;45.124;38.966;2024-01-25T12:17:34;4.92;85.77
65203;HTU21D;51788;45.124;38.966;2024-01-25T12:20:05;4.92;85.86
65203;HTU21D;51788;45.124;38.966;2024-01-25T12:22:37;4.92;85.87
65203;HTU21D;51788;45.124;38.966;2024-01-25T12:25:09;4.91;85.97
65203;HTU21D;51788;45.124;38.966;2024-01-25T12:27:35;4.91;86.03
65203;HTU21D;51788;45.124;38.966;2024-01-25T12:30:03;4.89;86.12
65203;HTU21D;51788;45.124;38.966;2024-01-25T12:32:29;4.89;86.13
65203;HTU21D;51788;45.124;38.966;2024-01-25T12:34:56;4.89;86.17
65203;HTU21D;51788;45.124;38.966;2024-01-25T12:37:22;4.89;86.16
65203;HTU21D;51788;45.124;38.966;2024-01-25T12:39:49;4.90;86.13
65203;HTU21D;51788;45.124;38.966;2024-01-25T12:42:15;4.89;86.14
65203;HTU21D;51788;45.124;38.966;2024-01-25T12:44:41;4.86;86.25
65203;HTU21D;51788;45.124;38.966;2024-01-25T12:47:07;4.83;86.32
65203;HTU21D;51788;45.124;38.966;2024-01-25T12:49:33;4.83;86.35
65203;HTU21D;51788;45.124;38.966;2024-01-25T12:51:59;4.87;86.36
65203;HTU21D;51788;45.124;38.966;2024-01-25T12:54:26;4.88;86.38
65203;HTU21D;51788;45.124;38.966;2024-01-25T12:56:52;4.89;86.36
65203;HTU21D;51788;45.124;38.966;2024-01-25T12:59:18;4.89;86.42
65203;HTU21D;51788;45.124;38.966;2024-01-25T13:01:45;4.90;86.46
65203;HTU21D;51788;45.124;38.966;2024-01-25T13:04:11;4.92;86.48
65203;HTU21D;51788;45.124;38.966;2024-01-25T13:06:37;4.93;86.46
65203;HTU21D;51788;45.124;38.966;2024-01-25T13:09:03;4.93;86.46
65203;HTU21D;51788;45.124;38.966;2024-01-25T13:11:29;4.94;86.50
65203;HTU21D;51788;45.124;38.966;2024-01-25T13:13:55;4.93;86.56
65203;HTU21D;51788;45.124;38.966;2024-01-25T13:16:22;4.94;86.62
65203;HTU21D;51788;45.124;38.966;2024-01-25T13:18:48;4.92;86.67
65203;HTU21D;51788;45.124;38.966;2024-01-25T13:21:14;4.97;86.66
65203;HTU21D;51788;45.124;38.966;2024-01-25T13:23:40;5.01;86.64
65203;HTU21D;51788;45.124;38.966;2024-01-25T13:26:05;5.02;86.58
65203;HTU21D;51788;45.124;38.966;2024-01-25T13:28:31;5.01;86.60
65203;HTU21D;51788;45.124;38.966;2024-01-25T13:30:58;5.01;86.55
65203;HTU21D;51788;45.124;38.966;2024-01-25T13:33:25;4.97;86.66
65203;HTU21D;51788;45.124;38.966;2024-01-25T13:35:51;4.91;86.93
65203;HTU21D;51788;45.124;38.966;2024-01-25T13:38:17;4.84;87.22
65203;HTU21D;51788;45.124;38.966;2024-01-25T13:40:43;4.80;87.49
65203;HTU21D;51788;45.124;38.966;2024-01-25T13:43:09;4.80;87.69
65203;HTU21D;51788;45.124;38.966;2024-01-25T13:45:35;4.81;87.76
65203;HTU21D;51788;45.124;38.966;2024-01-25T13:48:01;4.80;87.92
65203;HTU21D;51788;45.124;38.966;2024-01-25T13:50:27;4.78;88.07
65203;HTU21D;51788;45.124;38.966;2024-01-25T13:52:53;4.76;88.09
65203;HTU21D;51788;45.124;38.966;2024-01-25T13:55:19;4.75;88.25
65203;HTU21D;51788;45.124;38.966;2024-01-25T13:57:45;4.72;88.29
65203;HTU21D;51788;45.124;38.966;2024-01-25T14:00:11;4.68;88.35
65203;HTU21D;51788;45.124;38.966;2024-01-25T14:02:39;4.64;88.58
65203;HTU21D;51788;45.124;38.966;2024-01-25T14:05:05;4.60;88.68
65203;HTU21D;51788;45.124;38.966;2024-01-25T14:07:32;4.60;89.13
65203;HTU21D;51788;45.124;38.966;2024-01-25T14:09:58;4.54;89.21
65203;HTU21D;51788;45.124;38.966;2024-01-25T14:12:24;4.48;89.21
65203;HTU21D;51788;45.124;38.966;2024-01-25T14:14:50;4.44;89.34
65203;HTU21D;51788;45.124;38.966;2024-01-25T14:17:16;4.39;89.43
65203;HTU21D;51788;45.124;38.966;2024-01-25T14:19:42;4.36;89.66
65203;HTU21D;51788;45.124;38.966;2024-01-25T14:22:08;4.34;89.82
65203;HTU21D;51788;45.124;38.966;2024-01-25T14:24:34;4.33;89.81
65203;HTU21D;51788;45.124;38.966;2024-01-25T14:27:00;4.34;89.97
65203;HTU21D;51788;45.124;38.966;2024-01-25T14:29:26;4.34;90.05
65203;HTU21D;51788;45.124;38.966;2024-01-25T14:31:55;4.32;90.07
65203;HTU21D;51788;45.124;38.966;2024-01-25T14:34:21;4.31;90.05
65203;HTU21D;51788;45.124;38.966;2024-01-25T14:36:47;4.30;90.13
65203;HTU21D;51788;45.124;38.966;2024-01-25T14:39:13;4.31;90.06
65203;HTU21D;51788;45.124;38.966;2024-01-25T14:41:42;4.31;90.08
65203;HTU21D;51788;45.124;38.966;2024-01-25T14:44:08;4.31;90.08
65203;HTU21D;51788;45.124;38.966;2024-01-25T14:46:34;4.28;90.06
65203;HTU21D;51788;45.124;38.966;2024-01-25T14:49:00;4.26;90.14
65203;HTU21D;51788;45.124;38.966;2024-01-25T14:51:27;4.26;90.21
65203;HTU21D;51788;45.124;38.966;2024-01-25T14:53:52;4.27;90.26
65203;HTU21D;51788;45.124;38.966;2024-01-25T14:56:19;4.26;90.29
65203;HTU21D;51788;45.124;38.966;2024-01-25T14:58:44;4.24;90.36
65203;HTU21D;51788;45.124;38.966;2024-01-25T15:01:17;4.22;90.37
65203;HTU21D;51788;45.124;38.966;2024-01-25T15:03:44;4.21;90.34
65203;HTU21D;51788;45.124;38.966;2024-01-25T15:06:13;4.19;90.34
65203;HTU21D;51788;45.124;38.966;2024-01-25T15:08:40;4.17;90.40